Latest Coastal Weather Observations for Point Perpendicular

IDN60701

Issued at 6:41 am EST Tuesday 28 June 2022 (issued every 10 minutes, with the page automatically refreshed every 10 minutes)

About coastal observations | Map of coastal stations | Coastal observations for NSW | Marine services | Other Formats
Station Details ID: 068151 Name: POINT PERPENDICULAR AWS Lat: -35.09 Lon: 150.80 Height: 85.0 m
Data from the previous 72 hours. | See also: Recent months at Point Perpendicular
Date/Time
EST
Wind Sea
Height
m
Swell Vis
km
Cloud Weather Temp
°C
Press
MSL
hPa
Rain since
9am
mm
Dir  Spd
kts
Gust
kts
Height
m
Period
s
Dir
28/06:30am SW 13 23 - - - - - - - 10.5 1030.3 0.2
28/06:00am SW 13 20 - - - - - - - 10.5 1029.7 0.2
28/05:30am WSW 11 19 - - - - - - - 10.9 1029.5 0.2
28/05:00am SW 9 15 - - - - - - - 12.1 1028.5 0.2
28/04:30am SSW 14 22 - - - - - - - 12.0 1028.4 0.2
28/04:00am SSW 16 23 - - - - - - - 12.0 1028.7 0.2
28/03:30am SSW 16 26 - - - - - - - 11.8 1028.5 0.2
28/03:28am SSW 16 26 - - - - - - - 11.9 1028.5 0.2
28/03:00am SW 14 21 - - - - - - - 11.9 1028.7 0.2
28/02:30am SW 12 19 - - - - - - - 12.0 1029.1 0.2
28/02:00am SSW 16 27 - - - - - - - 12.0 1028.9 0.2
28/01:42am SW 15 25 - - - - - - - 11.7 1029.3 0.2
28/01:30am SW 15 24 - - - - - - - 11.5 1029.2 0.2
28/01:13am SW 15 25 - - - - - - - 11.6 1029.4 0.0
28/01:00am SSW 15 24 - - - - - - - 11.9 1029.3 0.0
28/12:30am SSW 17 27 - - - - - - - 11.8 1028.9 0.0
28/12:00am SSW 17 27 - - - - - - - 12.3 1029.2 0.0
 
Date/Time
EST
Wind Sea
Height
m
Swell Vis
km
Cloud Weather Temp
°C
Press
MSL
hPa
Rain since
9am
mm
Dir  Spd
kts
Gust
kts
Height
m
Period
s
Dir
27/11:30pm SSW 17 27 - - - - - - - 12.2 1029.5 0.0
27/11:04pm SSW 17 27 - - - - - - - 12.5 1029.1 0.0
27/11:00pm SSW 18 27 - - - - - - - 12.7 1029.3 0.0
27/10:30pm SSW 17 28 - - - - - - - 12.5 1028.9 0.0
27/10:00pm SSW 20 30 - - - - - - - 12.3 1028.9 0.0
27/09:31pm SSW 20 30 - - - - - - - 12.5 1028.8 0.0
27/09:30pm SSW 20 27 - - - - - - - 12.7 1028.7 0.0
27/09:00pm SSW 20 31 - - - - - - - 12.7 1028.9 0.0
27/08:46pm SSW 19 29 - - - - - - - 12.8 1029.0 0.0
27/08:30pm SSW 19 27 - - - - - - - 13.1 1029.1 0.0
27/08:10pm SSW 19 31 - - - - - - - 13.1 1028.9 0.0
27/08:00pm SSW 19 27 - - - - - - - 13.1 1028.9 0.0
27/07:39pm SSW 20 34 - - - - - - - 13.4 1028.3 0.0
27/07:30pm SSW 19 28 - - - - - - - 13.2 1028.4 0.0
27/07:04pm SSW 20 30 - - - - - - - 13.2 1028.2 0.0
27/07:00pm SSW 21 28 - - - - - - - 13.2 1028.0 0.0
27/06:30pm SSW 20 33 - - - - - - - 12.4 1028.3 0.0
27/06:00pm SSW 18 43 - - - - - - - 12.9 1027.6 0.0
27/05:53pm SSW 21 43 - - - - - - - 12.0 1028.2 0.0
27/05:33pm SSW 19 29 - - - - - - - 13.1 1027.4 0.0
27/05:30pm SSW 18 27 - - - - - - - 13.1 1027.6 0.0
27/05:00pm SSW 19 30 - - - - - - - 12.8 1027.7 0.0
27/04:32pm SSW 18 28 - - - - - - - 13.3 1026.9 0.0
27/04:30pm SSW 18 27 - - - - - - - 13.1 1026.9 0.0
27/04:00pm SSW 20 31 - - - - - - - 13.2 1026.8 0.0
27/03:30pm SSW 20 32 - - - - - - - 13.1 1027.0 0.0
27/03:06pm SSW 18 28 - - - - - - - 13.2 1026.2 0.0
27/03:00pm SSW 19 28 - - - - - - - 13.1 1026.2 0.0
27/02:30pm SSW 18 30 - - - - - - - 13.1 1026.3 0.0
27/02:00pm SSW 20 32 - - - - - - - 12.9 1026.2 0.0
27/01:30pm SSW 21 31 - - - - - - - 12.6 1026.1 0.0
27/01:00pm SSW 20 32 - - - - - - - 12.6 1026.2 0.0
27/12:44pm SSW 20 30 - - - - - - - 12.7 1026.1 0.0
27/12:30pm SSW 17 25 - - - - - - - 12.6 1026.2 0.0
27/12:00pm SSW 19 29 - - - - - - - 12.5 1026.7 0.0
27/11:37am SW 17 27 - - - - - - - 12.4 1026.8 0.0
27/11:30am SSW 18 26 - - - - - - - 12.4 1026.7 0.0
27/11:00am SW 17 26 - - - - - - - 12.4 1026.5 0.0
27/10:30am SSW 17 27 - - - - - - - 12.4 1026.5 0.0
27/10:09am SSW 18 28 - - - - - - - 12.5 1026.2 0.0
27/10:00am SSW 20 28 - - - - - - - 13.1 1026.3 0.0
27/09:33am SSW 20 30 - - - - - - - 12.7 1025.7 0.0
27/09:30am SSW 21 30 - - - - - - - 12.9 1025.7 0.0
27/09:06am SSW 18 30 - - - - - - - 12.9 1025.8 0.0
27/09:00am SSW 17 26 - - - - - - - 12.8 1025.7 4.6
27/08:31am SSW 15 25 - - - - - - - 12.8 1025.4 4.6
27/08:30am SSW 16 25 - - - - - - - 12.9 1025.5 4.6
27/08:03am SSW 16 26 - - - - - - - 13.0 1025.2 4.6
27/08:00am SSW 16 25 - - - - - - - 13.0 1025.4 4.6
27/07:49am SSW 17 27 - - - - - - - 12.8 1025.1 4.6
27/07:30am SSW 18 27 - - - - - - - 13.0 1024.9 4.6
27/07:24am SSW 17 27 - - - - - - - 13.2 1025.0 4.6
27/07:00am SSW 17 25 - - - - - - - 13.0 1024.5 4.6
27/06:30am SSW 17 27 - - - - - - - 13.0 1024.0 4.6
27/06:20am SW 15 29 - - - - - - - 13.4 1023.8 4.6
27/06:19am SW 14 23 - - - - - - - 13.1 1023.8 4.6
27/06:00am SW 7 13 - - - - - - Recent precip. 13.0 1023.8 4.6
27/05:30am SW 10 16 - - - - - - - 12.1 1024.3 4.4
27/05:00am SW 7 12 - - - - - - - 12.5 1024.2 1.4
27/04:30am WSW 8 14 - - - - - - - 12.7 1023.8 1.4
27/04:00am SW 9 15 - - - - - - - 12.5 1023.8 1.2
27/03:30am WSW 8 12 - - - - - - - 12.7 1023.6 0.0
27/03:00am WSW 7 12 - - - - - - - 12.9 1023.5 0.0
27/02:30am WSW 5 10 - - - - - - - 12.6 1023.6 0.0
27/02:00am W 4 10 - - - - - - - 12.6 1023.7 0.0
27/01:30am W 2 5 - - - - - - - 12.6 1023.8 0.0
27/01:00am W 2 3 - - - - - - - 12.6 1024.0 0.0
27/12:30am W 2 4 - - - - - - - 12.5 1024.0 0.0
27/12:00am W 3 4 - - - - - - - 12.9 1024.0 0.0
 
Date/Time
EST
Wind Sea
Height
m
Swell Vis
km
Cloud Weather Temp
°C
Press
MSL
hPa
Rain since
9am
mm
Dir  Spd
kts
Gust
kts
Height
m
Period
s
Dir
26/11:30pm W 2 4 - - - - - - - 12.9 1024.0 0.0
26/11:00pm W 3 4 - - - - - - - 12.9 1024.0 0.0
26/10:30pm W 2 4 - - - - - - - 13.3 1024.0 0.0
26/10:00pm W 3 5 - - - - - - - 13.7 1023.9 0.0
26/09:30pm W 3 4 - - - - - - - 13.9 1024.0 0.0
26/09:00pm WNW 4 5 - - - - - - - 14.0 1023.8 0.0
26/08:30pm WNW 3 5 - - - - - - - 14.3 1023.8 0.0
26/08:00pm WNW 5 7 - - - - - - - 14.5 1023.7 0.0
26/07:30pm WNW 5 7 - - - - - - - 14.5 1023.6 0.0
26/07:00pm WNW 6 8 - - - - - - - 13.5 1023.5 0.0
26/06:30pm NW 4 6 - - - - - - - 13.9 1023.2 0.0
26/06:00pm N 3 5 - - - - - - - 13.5 1023.0 0.0
26/05:30pm NNE 1 2 - - - - - - - 13.7 1022.8 0.0
26/05:00pm CALM 0 0 - - - - - - - 13.6 1022.7 0.0
26/04:30pm ENE 1 2 - - - - - - - 15.0 1022.5 0.0
26/04:00pm SE 3 4 - - - - - - - 15.1 1022.3 0.0
26/03:30pm SE 3 5 - - - - - - - 15.5 1022.2 0.0
26/03:00pm SE 2 4 - - - - - - - 15.6 1022.2 0.0
26/02:30pm S 3 5 - - - - - - - 16.0 1022.1 0.0
26/02:00pm S 6 7 - - - - - - - 16.2 1022.1 0.0
26/01:30pm S 5 8 - - - - - - - 16.0 1022.1 0.0
26/01:00pm S 7 10 - - - - - - - 15.8 1022.2 0.0
26/12:30pm SW 5 9 - - - - - - - 16.4 1022.3 0.0
26/12:00pm WSW 4 9 - - - - - - - 16.4 1022.8 0.0
26/11:30am W 3 6 - - - - - - - 16.1 1023.2 0.0
26/11:00am WNW 4 9 - - - - - - - 15.9 1023.3 0.0
26/10:30am WNW 5 10 - - - - - - - 15.0 1023.4 0.0
26/10:00am NW 8 12 - - - - - - - 14.7 1023.7 0.0
26/09:30am NW 8 11 - - - - - - - 14.0 1023.6 0.0
26/09:00am NW 8 12 - - - - - - - 13.6 1023.6 0.0
26/08:30am NW 7 11 - - - - - - - 13.1 1023.4 0.0
26/08:00am WNW 6 9 - - - - - - - 12.0 1023.3 0.0
26/07:30am NW 7 9 - - - - - - - 11.8 1023.1 0.0
26/07:00am NW 8 10 - - - - - - - 11.1 1022.9 0.0
26/06:30am NW 8 9 - - - - - - - 11.5 1022.7 0.0
26/06:00am NW 8 10 - - - - - - - 11.1 1022.6 0.0
26/05:30am WNW 4 6 - - - - - - - 11.4 1022.2 0.0
26/05:00am WNW 5 8 - - - - - - - 11.3 1022.1 0.0
26/04:30am NW 8 11 - - - - - - - 11.7 1022.0 0.0
26/04:00am NW 7 10 - - - - - - - 11.8 1022.0 0.0
26/03:30am NW 7 10 - - - - - - - 11.4 1021.9 0.0
26/03:00am NW 7 10 - - - - - - - 12.0 1022.0 0.0
26/02:30am NW 9 12 - - - - - - - 11.7 1022.0 0.0
26/02:00am NW 7 9 - - - - - - - 11.8 1022.0 0.0
26/01:30am NW 8 10 - - - - - - - 11.2 1022.1 0.0
26/01:00am WNW 5 8 - - - - - - - 12.0 1022.0 0.0
26/12:30am WNW 4 7 - - - - - - - 11.6 1021.8 0.0
26/12:00am NW 7 9 - - - - - - - 12.7 1022.0 0.0
 
Date/Time
EST
Wind Sea
Height
m
Swell Vis
km
Cloud Weather Temp
°C
Press
MSL
hPa
Rain since
9am
mm
Dir  Spd
kts
Gust
kts
Height
m
Period
s
Dir
25/11:30pm NW 7 10 - - - - - - - 12.6 1022.0 0.0
25/11:00pm WNW 7 10 - - - - - - - 13.0 1022.0 0.0
25/10:30pm WNW 5 7 - - - - - - - 13.2 1021.9 0.0
25/10:00pm NW 8 10 - - - - - - - 12.9 1022.0 0.0
25/09:30pm WNW 5 8 - - - - - - - 13.7 1021.9 0.0
25/09:00pm WNW 5 6 - - - - - - - 14.0 1022.0 0.0
25/08:30pm WNW 4 5 - - - - - - - 14.2 1021.9 0.0
25/08:00pm WNW 3 5 - - - - - - - 14.5 1022.0 0.0
25/07:30pm WNW 3 5 - - - - - - - 14.7 1021.7 0.0
25/07:00pm WNW 3 5 - - - - - - - 15.0 1021.5 0.0
25/06:30pm WNW 4 5 - - - - - - - 15.4 1021.3 0.0
25/06:00pm WNW 4 6 - - - - - - - 16.1 1020.9 0.0
25/05:30pm W 4 7 - - - - - - - 16.2 1020.5 0.0
25/05:00pm W 2 6 - - - - - - - 16.4 1020.4 0.0
25/04:30pm W 3 6 - - - - - - - 16.7 1020.2 0.0
25/04:00pm W 3 8 - - - - - - - 17.2 1019.9 0.0
25/03:30pm W 3 9 - - - - - - - 17.5 1019.6 0.0
25/03:00pm W 5 10 - - - - - - - 17.7 1019.4 0.0
25/02:30pm W 5 10 - - - - - - - 17.7 1019.3 0.0
25/02:00pm W 5 13 - - - - - - - 17.7 1019.2 0.0
25/01:30pm W 5 10 - - - - - - - 17.6 1019.1 0.0
25/01:00pm W 5 9 - - - - - - - 17.5 1019.3 0.0
25/12:30pm WSW 5 10 - - - - - - - 17.0 1019.6 0.0
25/12:00pm W 5 10 - - - - - - - 16.7 1019.8 0.0
25/11:30am WNW 5 12 - - - - - - - 16.7 1020.2 0.0
25/11:00am WNW 5 11 - - - - - - - 16.1 1020.4 0.0
25/10:30am WNW 6 13 - - - - - - - 15.4 1020.6 0.0
25/10:00am WNW 7 13 - - - - - - - 14.9 1020.5 0.0
25/09:30am WNW 9 16 - - - - - - - 14.3 1020.5 0.0
25/09:00am WNW 8 14 - - - - - - - 14.5 1020.1 0.0
25/08:30am NW 10 13 - - - - - - - 14.3 1019.9 0.0
25/08:00am NW 6 9 - - - - - - - 14.0 1019.9 0.0
25/07:30am NW 8 10 - - - - - - - 13.5 1019.7 0.0
25/07:00am WNW 5 7 - - - - - - - 13.7 1019.6 0.0

Other formats

Comma delimited format used in spreadsheet applications
http://www.bom.gov.au/fwo/IDN60701/IDN60701.95940.axf

JavaScript Object Notation format (JSON) in row-major order
http://www.bom.gov.au/fwo/IDN60701/IDN60701.95940.json

Data quality

Most of these data are generated automatically and are frequently updated. Quality checks on data are not normally performed. It is possible for incorrect values to appear. Refer to information at About Latest Weather Observations and please check the disclaimer before using these data.